createdAt,value
2023-03-23T16:00:41.961Z,3.47
2023-03-23T16:04:08.756Z,3.45
2023-03-23T16:07:14.193Z,3.78
2023-03-23T16:10:22.725Z,4.25
2023-03-23T16:13:28.012Z,3.65
2023-03-23T16:16:41.432Z,4.43
2023-03-23T16:19:45.933Z,3.83
2023-03-23T16:22:52.049Z,3.42
2023-03-23T16:25:56.065Z,3.60
2023-03-23T16:29:12.363Z,3.60
2023-03-23T16:32:21.720Z,3.13
2023-03-23T16:35:26.215Z,3.45
2023-03-23T16:38:30.781Z,3.55
2023-03-23T16:41:34.956Z,3.53
2023-03-23T16:44:39.403Z,3.88
2023-03-23T16:47:44.871Z,3.97
2023-03-23T16:50:51.332Z,3.97
2023-03-23T16:53:56.067Z,3.45
2023-03-23T16:57:00.466Z,2.75
2023-03-23T17:00:11.018Z,3.80
2023-03-23T17:03:16.367Z,2.97
2023-03-23T17:06:21.286Z,4.35
2023-03-23T17:09:28.908Z,3.42
2023-03-23T17:12:33.721Z,3.92
2023-03-23T17:15:40.917Z,3.38
2023-03-23T17:18:45.362Z,4.47
2023-03-23T17:21:49.746Z,3.05
2023-03-23T17:24:54.008Z,2.88
2023-03-23T17:28:06.964Z,3.63
2023-03-23T17:31:11.593Z,3.60
2023-03-23T17:34:18.716Z,4.35
2023-03-23T17:37:23.874Z,4.90
2023-03-23T17:40:28.359Z,3.58
2023-03-23T17:43:33.660Z,3.88
2023-03-23T17:46:38.323Z,4.22
2023-03-23T17:49:42.480Z,5.03
2023-03-23T17:52:46.629Z,5.32
2023-03-23T17:55:50.890Z,5.32
2023-03-23T17:58:55.259Z,5.38
2023-03-23T18:01:59.784Z,5.43
2023-03-23T18:05:06.288Z,4.68
2023-03-23T18:08:10.688Z,4.13
2023-03-23T18:11:15.424Z,4.55
2023-03-23T18:14:20.781Z,4.60
2023-03-23T18:17:26.831Z,4.32
2023-03-23T18:20:32.350Z,6.60
2023-03-23T18:23:45.996Z,6.80
2023-03-23T18:26:54.060Z,7.55
2023-03-23T18:29:59.010Z,6.13
2023-03-23T18:33:03.689Z,3.88
2023-03-23T18:36:09.825Z,5.35
2023-03-23T18:39:14.320Z,3.30
2023-03-23T18:42:18.953Z,5.88
2023-03-23T18:45:23.117Z,2.75
2023-03-23T18:54:38.239Z,4.25
2023-03-23T18:57:42.756Z,7.25
2023-03-23T19:00:47.806Z,10.90
2023-03-23T19:03:52.650Z,6.80
2023-03-23T19:06:58.289Z,4.30
2023-03-23T19:10:03.684Z,8.27
2023-03-23T19:13:09.714Z,7.78
2023-03-23T19:16:14.088Z,3.75
2023-03-23T19:19:19.029Z,6.03
2023-03-23T19:22:23.413Z,4.25
2023-03-23T19:25:27.969Z,4.03
2023-03-23T19:29:15.489Z,3.22
2023-03-23T19:35:03.387Z,2.72
2023-03-23T19:38:10.081Z,3.25
2023-03-23T19:41:15.660Z,2.75
2023-03-23T19:44:20.742Z,3.40
2023-03-23T19:47:25.795Z,3.45
2023-03-23T19:50:31.304Z,2.78
2023-03-23T19:53:36.407Z,2.80
2023-03-23T19:56:41.367Z,3.08
2023-03-23T19:59:45.871Z,3.65
2023-03-23T20:02:50.420Z,2.53
2023-03-23T20:06:05.677Z,2.92
2023-03-23T20:09:10.807Z,2.90
2023-03-23T20:15:20.521Z,3.40
2023-03-23T20:18:25.643Z,2.60
2023-03-23T20:21:30.378Z,2.72
2023-03-23T20:24:34.890Z,2.67
2023-03-23T20:27:40.436Z,3.13
2023-03-23T20:30:45.502Z,3.38
2023-03-23T20:34:28.481Z,2.47
2023-03-23T20:37:40.388Z,2.67
2023-03-23T20:40:45.353Z,2.45
2023-03-23T20:43:50.133Z,2.47
2023-03-23T20:46:54.914Z,3.13
2023-03-23T20:49:59.091Z,3.42
2023-03-23T20:53:04.547Z,3.22
2023-03-23T20:56:10.664Z,3.65
2023-03-23T20:59:15.601Z,3.30
2023-03-23T21:02:20.571Z,3.47
2023-03-23T21:05:24.750Z,4.00
2023-03-23T21:08:30.289Z,3.30
2023-03-23T21:11:35.297Z,3.13
2023-03-23T21:14:41.189Z,2.83
2023-03-23T21:17:45.265Z,3.88
2023-03-23T21:20:52.521Z,3.72
2023-03-23T21:23:57.574Z,4.13
2023-03-23T21:27:03.049Z,3.38
2023-03-23T21:30:09.328Z,3.95
2023-03-23T21:33:14.337Z,3.95
2023-03-23T21:36:18.912Z,4.20
2023-03-23T21:45:34.841Z,4.03
2023-03-23T21:48:41.316Z,4.70
2023-03-23T21:51:45.518Z,7.03
2023-03-23T21:54:50.121Z,6.03
2023-03-23T21:57:54.455Z,5.97
2023-03-23T22:04:07.634Z,6.85
2023-03-23T22:07:12.642Z,7.03
2023-03-23T22:10:17.178Z,7.32
2023-03-23T22:13:21.836Z,6.65
2023-03-23T22:16:27.414Z,7.53
2023-03-23T22:19:33.084Z,7.65
2023-03-23T22:22:37.601Z,7.43
2023-03-23T22:25:42.180Z,7.78
2023-03-23T22:28:49.403Z,7.50
2023-03-23T22:31:54.057Z,8.38
2023-03-23T22:34:58.781Z,8.77
2023-03-23T22:38:03.411Z,9.38
2023-03-23T22:41:10.920Z,9.45
2023-03-23T22:44:20.314Z,9.65
2023-03-23T22:47:24.766Z,9.05
2023-03-23T22:53:33.408Z,11.07
2023-03-23T22:56:38.333Z,10.38
2023-03-23T22:59:42.892Z,10.50
2023-03-23T23:02:47.345Z,10.75
2023-03-23T23:05:53.968Z,11.00
2023-03-23T23:08:58.539Z,10.57
2023-03-23T23:12:04.024Z,12.50
2023-03-23T23:15:12.558Z,11.93
2023-03-23T23:18:17.346Z,13.38
2023-03-23T23:21:26.058Z,13.88
2023-03-23T23:24:31.239Z,13.48
2023-03-23T23:27:35.571Z,13.02
2023-03-23T23:30:40.012Z,13.38
2023-03-23T23:33:44.351Z,12.98
2023-03-23T23:39:52.957Z,13.93
2023-03-23T23:42:57.403Z,13.68
2023-03-23T23:46:01.729Z,13.15
2023-03-23T23:49:07.007Z,12.98
2023-03-23T23:52:11.082Z,13.77
2023-03-23T23:58:22.337Z,12.77
